sensor_id;sensor_type;location;lat;lon;timestamp;P1;durP1;ratioP1;P2;durP2;ratioP2
42104;SDS011;70664;51.472;5.712;2023-07-08T00:00:50;8.77;;;4.13;;
42104;SDS011;70664;51.472;5.712;2023-07-08T00:03:17;9.52;;;4.20;;
42104;SDS011;70664;51.472;5.712;2023-07-08T00:05:44;5.88;;;3.75;;
42104;SDS011;70664;51.472;5.712;2023-07-08T00:08:16;7.03;;;3.72;;
42104;SDS011;70664;51.472;5.712;2023-07-08T00:10:44;6.85;;;3.60;;
42104;SDS011;70664;51.472;5.712;2023-07-08T00:13:10;5.97;;;4.20;;
42104;SDS011;70664;51.472;5.712;2023-07-08T00:15:36;8.68;;;4.07;;
42104;SDS011;70664;51.472;5.712;2023-07-08T00:18:12;6.60;;;4.20;;
42104;SDS011;70664;51.472;5.712;2023-07-08T00:20:46;7.05;;;4.43;;
42104;SDS011;70664;51.472;5.712;2023-07-08T00:23:14;6.40;;;4.03;;
42104;SDS011;70664;51.472;5.712;2023-07-08T00:25:40;5.40;;;3.72;;
42104;SDS011;70664;51.472;5.712;2023-07-08T00:28:10;5.70;;;3.70;;
42104;SDS011;70664;51.472;5.712;2023-07-08T00:30:43;7.82;;;3.78;;
42104;SDS011;70664;51.472;5.712;2023-07-08T00:33:09;5.28;;;3.60;;
42104;SDS011;70664;51.472;5.712;2023-07-08T00:38:13;7.88;;;3.63;;
42104;SDS011;70664;51.472;5.712;2023-07-08T00:43:41;7.40;;;3.55;;
42104;SDS011;70664;51.472;5.712;2023-07-08T00:48:53;6.57;;;4.03;;
42104;SDS011;70664;51.472;5.712;2023-07-08T00:52:16;8.05;;;4.25;;
42104;SDS011;70664;51.472;5.712;2023-07-08T00:54:54;6.22;;;4.07;;
42104;SDS011;70664;51.472;5.712;2023-07-08T00:57:28;4.65;;;3.65;;
42104;SDS011;70664;51.472;5.712;2023-07-08T01:02:50;7.45;;;4.35;;
42104;SDS011;70664;51.472;5.712;2023-07-08T01:05:21;5.20;;;3.67;;
42104;SDS011;70664;51.472;5.712;2023-07-08T01:07:53;6.40;;;4.10;;
42104;SDS011;70664;51.472;5.712;2023-07-08T01:10:28;6.43;;;3.92;;
42104;SDS011;70664;51.472;5.712;2023-07-08T01:13:03;5.05;;;4.03;;
42104;SDS011;70664;51.472;5.712;2023-07-08T01:15:37;6.88;;;3.97;;
42104;SDS011;70664;51.472;5.712;2023-07-08T01:18:08;6.83;;;3.90;;
42104;SDS011;70664;51.472;5.712;2023-07-08T01:20:36;4.80;;;3.40;;
42104;SDS011;70664;51.472;5.712;2023-07-08T01:23:05;4.78;;;3.60;;
42104;SDS011;70664;51.472;5.712;2023-07-08T01:25:31;5.35;;;3.85;;
42104;SDS011;70664;51.472;5.712;2023-07-08T01:27:58;7.22;;;4.40;;
42104;SDS011;70664;51.472;5.712;2023-07-08T01:30:25;5.13;;;3.67;;
42104;SDS011;70664;51.472;5.712;2023-07-08T01:32:59;6.40;;;3.90;;
42104;SDS011;70664;51.472;5.712;2023-07-08T01:35:29;5.25;;;4.25;;
42104;SDS011;70664;51.472;5.712;2023-07-08T01:37:59;8.10;;;3.83;;
42104;SDS011;70664;51.472;5.712;2023-07-08T01:40:30;6.85;;;4.22;;
42104;SDS011;70664;51.472;5.712;2023-07-08T01:43:00;6.32;;;3.90;;
42104;SDS011;70664;51.472;5.712;2023-07-08T01:45:28;5.20;;;3.90;;
42104;SDS011;70664;51.472;5.712;2023-07-08T01:48:01;5.82;;;4.15;;
42104;SDS011;70664;51.472;5.712;2023-07-08T01:50:32;5.82;;;3.83;;
42104;SDS011;70664;51.472;5.712;2023-07-08T01:53:07;5.47;;;4.10;;
42104;SDS011;70664;51.472;5.712;2023-07-08T01:55:38;5.85;;;3.55;;
42104;SDS011;70664;51.472;5.712;2023-07-08T01:58:04;4.90;;;3.65;;
42104;SDS011;70664;51.472;5.712;2023-07-08T02:00:30;7.07;;;3.28;;
42104;SDS011;70664;51.472;5.712;2023-07-08T02:02:55;5.57;;;3.47;;
42104;SDS011;70664;51.472;5.712;2023-07-08T02:05:22;5.13;;;3.45;;
42104;SDS011;70664;51.472;5.712;2023-07-08T02:07:48;5.32;;;3.03;;
42104;SDS011;70664;51.472;5.712;2023-07-08T02:10:15;5.43;;;3.30;;
42104;SDS011;70664;51.472;5.712;2023-07-08T02:12:41;6.85;;;3.40;;
42104;SDS011;70664;51.472;5.712;2023-07-08T02:15:09;8.15;;;3.35;;
42104;SDS011;70664;51.472;5.712;2023-07-08T02:17:36;4.80;;;2.90;;
42104;SDS011;70664;51.472;5.712;2023-07-08T02:20:01;4.35;;;3.20;;
42104;SDS011;70664;51.472;5.712;2023-07-08T02:22:28;4.72;;;3.10;;
42104;SDS011;70664;51.472;5.712;2023-07-08T02:24:54;4.75;;;3.00;;
42104;SDS011;70664;51.472;5.712;2023-07-08T02:27:20;3.47;;;2.80;;
42104;SDS011;70664;51.472;5.712;2023-07-08T02:29:45;4.38;;;2.75;;
42104;SDS011;70664;51.472;5.712;2023-07-08T02:32:11;5.30;;;2.83;;
42104;SDS011;70664;51.472;5.712;2023-07-08T02:34:37;3.53;;;2.83;;
42104;SDS011;70664;51.472;5.712;2023-07-08T02:37:03;4.53;;;2.85;;
42104;SDS011;70664;51.472;5.712;2023-07-08T02:39:29;4.50;;;3.00;;
42104;SDS011;70664;51.472;5.712;2023-07-08T02:41:55;3.42;;;2.83;;
42104;SDS011;70664;51.472;5.712;2023-07-08T02:44:21;6.13;;;2.95;;
42104;SDS011;70664;51.472;5.712;2023-07-08T02:46:47;4.25;;;3.00;;
42104;SDS011;70664;51.472;5.712;2023-07-08T02:49:13;4.35;;;2.90;;
42104;SDS011;70664;51.472;5.712;2023-07-08T02:51:39;4.38;;;3.03;;
42104;SDS011;70664;51.472;5.712;2023-07-08T02:54:05;3.25;;;2.55;;
42104;SDS011;70664;51.472;5.712;2023-07-08T02:56:31;4.60;;;2.90;;
42104;SDS011;70664;51.472;5.712;2023-07-08T02:58:56;3.97;;;2.60;;
42104;SDS011;70664;51.472;5.712;2023-07-08T03:01:22;3.17;;;2.42;;
42104;SDS011;70664;51.472;5.712;2023-07-08T03:03:48;3.70;;;2.63;;
42104;SDS011;70664;51.472;5.712;2023-07-08T03:06:15;3.30;;;2.60;;
42104;SDS011;70664;51.472;5.712;2023-07-08T03:08:41;4.18;;;2.50;;
42104;SDS011;70664;51.472;5.712;2023-07-08T03:11:07;5.43;;;2.88;;
42104;SDS011;70664;51.472;5.712;2023-07-08T03:13:37;3.88;;;2.80;;
42104;SDS011;70664;51.472;5.712;2023-07-08T03:16:03;6.47;;;2.80;;
42104;SDS011;70664;51.472;5.712;2023-07-08T03:18:37;2.85;;;2.30;;
42104;SDS011;70664;51.472;5.712;2023-07-08T03:21:11;3.05;;;2.53;;
42104;SDS011;70664;51.472;5.712;2023-07-08T03:23:39;5.35;;;2.53;;
42104;SDS011;70664;51.472;5.712;2023-07-08T03:26:06;3.97;;;2.80;;
42104;SDS011;70664;51.472;5.712;2023-07-08T03:28:33;3.67;;;2.42;;
42104;SDS011;70664;51.472;5.712;2023-07-08T03:30:59;3.80;;;2.75;;
42104;SDS011;70664;51.472;5.712;2023-07-08T03:33:24;4.70;;;2.70;;
42104;SDS011;70664;51.472;5.712;2023-07-08T03:35:50;4.22;;;2.65;;
42104;SDS011;70664;51.472;5.712;2023-07-08T03:38:16;3.88;;;2.70;;
42104;SDS011;70664;51.472;5.712;2023-07-08T03:40:42;3.08;;;2.50;;
42104;SDS011;70664;51.472;5.712;2023-07-08T03:43:09;3.83;;;2.60;;
42104;SDS011;70664;51.472;5.712;2023-07-08T03:45:35;4.30;;;2.50;;
42104;SDS011;70664;51.472;5.712;2023-07-08T03:48:00;3.25;;;2.70;;
42104;SDS011;70664;51.472;5.712;2023-07-08T03:50:27;3.05;;;2.38;;
42104;SDS011;70664;51.472;5.712;2023-07-08T03:52:54;2.85;;;2.25;;
42104;SDS011;70664;51.472;5.712;2023-07-08T03:55:21;3.22;;;2.55;;
42104;SDS011;70664;51.472;5.712;2023-07-08T03:57:47;3.75;;;2.55;;
42104;SDS011;70664;51.472;5.712;2023-07-08T04:00:13;3.30;;;2.65;;
42104;SDS011;70664;51.472;5.712;2023-07-08T04:02:42;3.88;;;2.58;;
42104;SDS011;70664;51.472;5.712;2023-07-08T04:05:13;5.22;;;2.53;;
42104;SDS011;70664;51.472;5.712;2023-07-08T04:07:44;4.28;;;2.80;;
42104;SDS011;70664;51.472;5.712;2023-07-08T04:10:11;3.88;;;2.85;;
42104;SDS011;70664;51.472;5.712;2023-07-08T04:12:38;3.90;;;2.58;;
42104;SDS011;70664;51.472;5.712;2023-07-08T04:15:06;3.88;;;2.30;;
42104;SDS011;70664;51.472;5.712;2023-07-08T04:17:40;3.47;;;2.40;;
42104;SDS011;70664;51.472;5.712;2023-07-08T04:20:10;3.65;;;2.50;;
42104;SDS011;70664;51.472;5.712;2023-07-08T04:22:39;3.65;;;2.50;;
42104;SDS011;70664;51.472;5.712;2023-07-08T04:25:05;3.22;;;2.47;;
42104;SDS011;70664;51.472;5.712;2023-07-08T04:27:31;3.15;;;2.35;;
42104;SDS011;70664;51.472;5.712;2023-07-08T04:29:57;3.33;;;2.42;;
42104;SDS011;70664;51.472;5.712;2023-07-08T04:32:23;3.63;;;2.60;;
42104;SDS011;70664;51.472;5.712;2023-07-08T04:34:50;3.97;;;2.50;;
42104;SDS011;70664;51.472;5.712;2023-07-08T04:37:17;2.80;;;2.20;;
42104;SDS011;70664;51.472;5.712;2023-07-08T04:39:44;3.08;;;2.33;;
42104;SDS011;70664;51.472;5.712;2023-07-08T04:42:10;2.80;;;2.30;;
42104;SDS011;70664;51.472;5.712;2023-07-08T04:44:40;4.28;;;2.40;;
42104;SDS011;70664;51.472;5.712;2023-07-08T04:47:07;3.55;;;2.45;;
42104;SDS011;70664;51.472;5.712;2023-07-08T04:49:38;3.30;;;2.20;;
42104;SDS011;70664;51.472;5.712;2023-07-08T04:52:05;4.05;;;2.35;;
42104;SDS011;70664;51.472;5.712;2023-07-08T04:54:31;4.10;;;2.50;;
42104;SDS011;70664;51.472;5.712;2023-07-08T04:56:57;3.83;;;2.40;;
42104;SDS011;70664;51.472;5.712;2023-07-08T04:59:24;3.30;;;2.38;;
42104;SDS011;70664;51.472;5.712;2023-07-08T05:01:51;3.75;;;2.47;;
42104;SDS011;70664;51.472;5.712;2023-07-08T05:04:18;3.22;;;2.25;;
42104;SDS011;70664;51.472;5.712;2023-07-08T05:06:47;2.78;;;2.20;;
42104;SDS011;70664;51.472;5.712;2023-07-08T05:09:14;2.78;;;2.38;;
42104;SDS011;70664;51.472;5.712;2023-07-08T05:11:40;3.33;;;2.38;;
42104;SDS011;70664;51.472;5.712;2023-07-08T05:14:06;2.55;;;2.30;;
42104;SDS011;70664;51.472;5.712;2023-07-08T05:16:32;3.13;;;2.40;;
42104;SDS011;70664;51.472;5.712;2023-07-08T05:19:01;3.45;;;2.55;;
42104;SDS011;70664;51.472;5.712;2023-07-08T05:21:28;3.13;;;2.50;;
42104;SDS011;70664;51.472;5.712;2023-07-08T05:23:58;4.78;;;3.08;;
42104;SDS011;70664;51.472;5.712;2023-07-08T05:26:27;3.67;;;2.95;;
42104;SDS011;70664;51.472;5.712;2023-07-08T05:28:53;3.15;;;2.70;;
42104;SDS011;70664;51.472;5.712;2023-07-08T05:31:19;3.50;;;2.60;;
42104;SDS011;70664;51.472;5.712;2023-07-08T05:33:45;4.68;;;2.97;;
42104;SDS011;70664;51.472;5.712;2023-07-08T05:36:11;4.35;;;3.13;;
42104;SDS011;70664;51.472;5.712;2023-07-08T05:38:37;3.55;;;2.97;;
42104;SDS011;70664;51.472;5.712;2023-07-08T05:41:03;3.13;;;2.45;;
42104;SDS011;70664;51.472;5.712;2023-07-08T05:43:29;2.95;;;2.35;;
42104;SDS011;70664;51.472;5.712;2023-07-08T05:45:58;3.33;;;2.67;;
42104;SDS011;70664;51.472;5.712;2023-07-08T05:48:25;2.83;;;2.30;;
42104;SDS011;70664;51.472;5.712;2023-07-08T05:50:51;2.60;;;2.10;;
42104;SDS011;70664;51.472;5.712;2023-07-08T05:53:18;5.28;;;3.05;;
42104;SDS011;70664;51.472;5.712;2023-07-08T05:55:48;3.65;;;2.72;;
42104;SDS011;70664;51.472;5.712;2023-07-08T05:58:15;4.47;;;2.80;;
42104;SDS011;70664;51.472;5.712;2023-07-08T06:00:43;3.58;;;3.03;;
42104;SDS011;70664;51.472;5.712;2023-07-08T06:03:10;2.70;;;2.20;;
42104;SDS011;70664;51.472;5.712;2023-07-08T06:05:37;2.97;;;2.40;;
42104;SDS011;70664;51.472;5.712;2023-07-08T06:08:03;2.58;;;2.38;;
42104;SDS011;70664;51.472;5.712;2023-07-08T06:10:31;4.30;;;3.33;;
42104;SDS011;70664;51.472;5.712;2023-07-08T06:12:57;3.75;;;3.05;;
42104;SDS011;70664;51.472;5.712;2023-07-08T06:15:22;4.90;;;3.50;;
42104;SDS011;70664;51.472;5.712;2023-07-08T06:17:48;3.22;;;2.90;;
42104;SDS011;70664;51.472;5.712;2023-07-08T06:20:14;3.53;;;2.80;;
42104;SDS011;70664;51.472;5.712;2023-07-08T06:22:40;4.25;;;2.80;;
42104;SDS011;70664;51.472;5.712;2023-07-08T06:25:06;4.35;;;2.97;;
42104;SDS011;70664;51.472;5.712;2023-07-08T06:27:32;4.20;;;3.05;;
42104;SDS011;70664;51.472;5.712;2023-07-08T06:29:58;4.10;;;3.00;;
42104;SDS011;70664;51.472;5.712;2023-07-08T06:32:24;3.92;;;2.95;;
42104;SDS011;70664;51.472;5.712;2023-07-08T06:34:50;3.92;;;3.17;;
42104;SDS011;70664;51.472;5.712;2023-07-08T06:37:15;3.65;;;2.75;;
42104;SDS011;70664;51.472;5.712;2023-07-08T06:39:41;3.83;;;2.88;;
42104;SDS011;70664;51.472;5.712;2023-07-08T06:42:07;3.78;;;3.10;;
42104;SDS011;70664;51.472;5.712;2023-07-08T06:44:33;3.80;;;3.10;;
42104;SDS011;70664;51.472;5.712;2023-07-08T06:46:59;4.88;;;3.10;;
42104;SDS011;70664;51.472;5.712;2023-07-08T06:49:24;3.83;;;2.90;;
42104;SDS011;70664;51.472;5.712;2023-07-08T06:51:50;3.97;;;3.13;;
42104;SDS011;70664;51.472;5.712;2023-07-08T06:54:16;4.07;;;3.28;;
42104;SDS011;70664;51.472;5.712;2023-07-08T06:56:41;4.97;;;3.10;;
42104;SDS011;70664;51.472;5.712;2023-07-08T06:59:08;4.78;;;2.97;;
42104;SDS011;70664;51.472;5.712;2023-07-08T07:01:34;3.47;;;2.75;;
42104;SDS011;70664;51.472;5.712;2023-07-08T07:04:01;3.38;;;2.72;;
42104;SDS011;70664;51.472;5.712;2023-07-08T07:06:28;5.30;;;2.60;;
42104;SDS011;70664;51.472;5.712;2023-07-08T07:08:55;3.70;;;2.75;;
42104;SDS011;70664;51.472;5.712;2023-07-08T07:11:21;3.72;;;2.70;;
42104;SDS011;70664;51.472;5.712;2023-07-08T07:13:46;3.30;;;2.45;;
42104;SDS011;70664;51.472;5.712;2023-07-08T07:16:12;3.00;;;2.50;;
42104;SDS011;70664;51.472;5.712;2023-07-08T07:18:38;3.50;;;2.60;;
42104;SDS011;70664;51.472;5.712;2023-07-08T07:21:04;3.47;;;2.67;;
42104;SDS011;70664;51.472;5.712;2023-07-08T07:23:30;3.25;;;2.58;;
42104;SDS011;70664;51.472;5.712;2023-07-08T07:25:56;5.05;;;2.53;;
42104;SDS011;70664;51.472;5.712;2023-07-08T07:28:22;5.28;;;2.60;;
42104;SDS011;70664;51.472;5.712;2023-07-08T07:30:54;5.18;;;2.67;;
42104;SDS011;70664;51.472;5.712;2023-07-08T07:33:22;5.03;;;2.70;;
42104;SDS011;70664;51.472;5.712;2023-07-08T07:35:48;5.15;;;2.78;;
42104;SDS011;70664;51.472;5.712;2023-07-08T07:38:14;5.07;;;3.25;;
42104;SDS011;70664;51.472;5.712;2023-07-08T07:40:41;4.43;;;2.92;;
42104;SDS011;70664;51.472;5.712;2023-07-08T07:43:08;6.25;;;2.60;;
42104;SDS011;70664;51.472;5.712;2023-07-08T07:45:33;4.53;;;2.70;;
42104;SDS011;70664;51.472;5.712;2023-07-08T07:47:59;4.68;;;3.03;;
42104;SDS011;70664;51.472;5.712;2023-07-08T07:50:25;6.25;;;2.90;;
42104;SDS011;70664;51.472;5.712;2023-07-08T07:52:51;4.53;;;3.20;;
42104;SDS011;70664;51.472;5.712;2023-07-08T07:55:17;5.47;;;3.60;;
42104;SDS011;70664;51.472;5.712;2023-07-08T07:57:43;5.43;;;3.72;;
42104;SDS011;70664;51.472;5.712;2023-07-08T08:00:10;6.07;;;3.50;;
42104;SDS011;70664;51.472;5.712;2023-07-08T08:02:39;6.13;;;3.60;;
42104;SDS011;70664;51.472;5.712;2023-07-08T08:05:05;7.45;;;3.78;;
42104;SDS011;70664;51.472;5.712;2023-07-08T08:07:32;5.93;;;3.95;;
42104;SDS011;70664;51.472;5.712;2023-07-08T08:09:57;5.88;;;3.88;;
42104;SDS011;70664;51.472;5.712;2023-07-08T08:12:23;6.78;;;3.70;;
42104;SDS011;70664;51.472;5.712;2023-07-08T08:14:50;5.60;;;3.88;;
42104;SDS011;70664;51.472;5.712;2023-07-08T08:17:16;5.20;;;3.92;;
42104;SDS011;70664;51.472;5.712;2023-07-08T08:19:42;5.97;;;4.38;;
42104;SDS011;70664;51.472;5.712;2023-07-08T08:22:08;5.03;;;3.88;;
42104;SDS011;70664;51.472;5.712;2023-07-08T08:24:34;5.65;;;4.07;;
42104;SDS011;70664;51.472;5.712;2023-07-08T08:26:59;7.13;;;4.70;;
42104;SDS011;70664;51.472;5.712;2023-07-08T08:29:25;6.18;;;4.60;;
42104;SDS011;70664;51.472;5.712;2023-07-08T08:31:51;7.40;;;4.38;;
42104;SDS011;70664;51.472;5.712;2023-07-08T08:34:19;10.57;;;4.40;;
42104;SDS011;70664;51.472;5.712;2023-07-08T08:36:45;8.93;;;4.32;;
42104;SDS011;70664;51.472;5.712;2023-07-08T08:39:11;7.53;;;4.28;;
42104;SDS011;70664;51.472;5.712;2023-07-08T08:41:38;8.52;;;4.95;;
42104;SDS011;70664;51.472;5.712;2023-07-08T08:44:06;7.30;;;4.43;;
42104;SDS011;70664;51.472;5.712;2023-07-08T08:46:44;7.30;;;5.18;;
42104;SDS011;70664;51.472;5.712;2023-07-08T08:51:52;9.55;;;4.63;;
42104;SDS011;70664;51.472;5.712;2023-07-08T08:54:19;8.68;;;4.82;;
42104;SDS011;70664;51.472;5.712;2023-07-08T08:56:51;7.47;;;4.85;;
42104;SDS011;70664;51.472;5.712;2023-07-08T09:01:51;9.30;;;4.75;;
42104;SDS011;70664;51.472;5.712;2023-07-08T09:04:28;6.40;;;4.30;;
42104;SDS011;70664;51.472;5.712;2023-07-08T09:07:13;8.48;;;4.80;;
42104;SDS011;70664;51.472;5.712;2023-07-08T09:09:53;7.53;;;4.57;;
42104;SDS011;70664;51.472;5.712;2023-07-08T09:12:27;6.20;;;4.50;;
42104;SDS011;70664;51.472;5.712;2023-07-08T09:14:56;6.85;;;4.97;;
42104;SDS011;70664;51.472;5.712;2023-07-08T09:22:34;7.07;;;4.10;;
42104;SDS011;70664;51.472;5.712;2023-07-08T09:25:24;8.30;;;4.57;;
42104;SDS011;70664;51.472;5.712;2023-07-08T09:27:55;9.23;;;4.43;;
42104;SDS011;70664;51.472;5.712;2023-07-08T09:30:22;8.02;;;4.65;;
42104;SDS011;70664;51.472;5.712;2023-07-08T09:32:54;6.57;;;4.22;;
42104;SDS011;70664;51.472;5.712;2023-07-08T09:37:51;8.13;;;4.53;;
42104;SDS011;70664;51.472;5.712;2023-07-08T09:40:22;7.93;;;4.10;;
42104;SDS011;70664;51.472;5.712;2023-07-08T09:43:00;10.85;;;4.72;;
42104;SDS011;70664;51.472;5.712;2023-07-08T09:45:40;10.55;;;4.57;;
42104;SDS011;70664;51.472;5.712;2023-07-08T09:51:08;11.20;;;4.38;;
42104;SDS011;70664;51.472;5.712;2023-07-08T09:53:34;9.63;;;4.15;;
42104;SDS011;70664;51.472;5.712;2023-07-08T09:56:04;9.45;;;4.40;;
42104;SDS011;70664;51.472;5.712;2023-07-08T09:58:34;7.50;;;3.58;;
42104;SDS011;70664;51.472;5.712;2023-07-08T10:01:25;7.70;;;3.85;;
42104;SDS011;70664;51.472;5.712;2023-07-08T10:03:57;6.55;;;3.95;;
42104;SDS011;70664;51.472;5.712;2023-07-08T10:06:28;10.25;;;3.97;;
42104;SDS011;70664;51.472;5.712;2023-07-08T10:09:04;8.90;;;3.90;;
42104;SDS011;70664;51.472;5.712;2023-07-08T10:11:40;8.10;;;4.40;;
42104;SDS011;70664;51.472;5.712;2023-07-08T10:14:32;9.00;;;4.90;;
42104;SDS011;70664;51.472;5.712;2023-07-08T10:17:04;6.55;;;4.25;;
42104;SDS011;70664;51.472;5.712;2023-07-08T10:19:30;6.65;;;4.18;;
42104;SDS011;70664;51.472;5.712;2023-07-08T10:28:13;6.57;;;3.90;;
42104;SDS011;70664;51.472;5.712;2023-07-08T10:31:16;8.85;;;4.03;;
42104;SDS011;70664;51.472;5.712;2023-07-08T10:34:16;9.82;;;4.00;;
42104;SDS011;70664;51.472;5.712;2023-07-08T10:40:19;8.15;;;3.83;;
42104;SDS011;70664;51.472;5.712;2023-07-08T10:45:56;9.75;;;3.97;;
42104;SDS011;70664;51.472;5.712;2023-07-08T10:52:22;11.30;;;4.05;;
42104;SDS011;70664;51.472;5.712;2023-07-08T11:08:19;7.65;;;3.90;;
42104;SDS011;70664;51.472;5.712;2023-07-08T11:13:58;6.40;;;4.10;;
42104;SDS011;70664;51.472;5.712;2023-07-08T11:16:37;9.05;;;3.85;;
42104;SDS011;70664;51.472;5.712;2023-07-08T11:19:21;9.88;;;3.63;;
42104;SDS011;70664;51.472;5.712;2023-07-08T11:21:56;4.88;;;3.35;;
42104;SDS011;70664;51.472;5.712;2023-07-08T11:24:43;10.45;;;4.00;;
42104;SDS011;70664;51.472;5.712;2023-07-08T11:27:15;11.57;;;4.57;;
42104;SDS011;70664;51.472;5.712;2023-07-08T11:30:01;9.90;;;3.90;;
42104;SDS011;70664;51.472;5.712;2023-07-08T11:32:35;10.85;;;4.50;;
42104;SDS011;70664;51.472;5.712;2023-07-08T11:35:02;11.43;;;4.13;;
42104;SDS011;70664;51.472;5.712;2023-07-08T11:37:32;8.77;;;4.25;;
42104;SDS011;70664;51.472;5.712;2023-07-08T11:40:07;11.15;;;4.28;;
42104;SDS011;70664;51.472;5.712;2023-07-08T11:42:49;7.20;;;4.07;;
42104;SDS011;70664;51.472;5.712;2023-07-08T11:47:47;11.18;;;4.10;;
42104;SDS011;70664;51.472;5.712;2023-07-08T11:58:25;9.45;;;3.92;;
42104;SDS011;70664;51.472;5.712;2023-07-08T12:01:17;7.82;;;3.67;;
42104;SDS011;70664;51.472;5.712;2023-07-08T12:09:14;5.55;;;4.00;;
42104;SDS011;70664;51.472;5.712;2023-07-08T12:11:57;9.50;;;4.20;;
42104;SDS011;70664;51.472;5.712;2023-07-08T12:14:38;7.43;;;3.90;;
42104;SDS011;70664;51.472;5.712;2023-07-08T12:17:07;8.98;;;4.40;;
42104;SDS011;70664;51.472;5.712;2023-07-08T12:19:38;7.10;;;4.03;;
42104;SDS011;70664;51.472;5.712;2023-07-08T12:22:08;8.48;;;4.10;;
42104;SDS011;70664;51.472;5.712;2023-07-08T12:24:37;8.48;;;4.50;;
42104;SDS011;70664;51.472;5.712;2023-07-08T12:27:03;5.20;;;3.65;;
42104;SDS011;70664;51.472;5.712;2023-07-08T12:29:30;5.45;;;3.63;;
42104;SDS011;70664;51.472;5.712;2023-07-08T12:31:57;7.85;;;4.15;;
42104;SDS011;70664;51.472;5.712;2023-07-08T12:34:23;9.40;;;4.00;;
42104;SDS011;70664;51.472;5.712;2023-07-08T12:36:51;7.32;;;4.20;;
42104;SDS011;70664;51.472;5.712;2023-07-08T12:39:18;5.57;;;3.70;;
42104;SDS011;70664;51.472;5.712;2023-07-08T12:41:44;7.72;;;4.20;;
42104;SDS011;70664;51.472;5.712;2023-07-08T12:44:21;7.90;;;4.28;;
42104;SDS011;70664;51.472;5.712;2023-07-08T12:46:50;8.45;;;4.00;;
42104;SDS011;70664;51.472;5.712;2023-07-08T12:49:19;6.32;;;4.13;;
42104;SDS011;70664;51.472;5.712;2023-07-08T12:51:46;7.53;;;4.00;;
42104;SDS011;70664;51.472;5.712;2023-07-08T12:54:13;5.32;;;3.90;;
42104;SDS011;70664;51.472;5.712;2023-07-08T12:56:40;8.60;;;3.75;;
42104;SDS011;70664;51.472;5.712;2023-07-08T12:59:11;8.15;;;4.10;;
42104;SDS011;70664;51.472;5.712;2023-07-08T13:01:44;10.35;;;4.05;;
42104;SDS011;70664;51.472;5.712;2023-07-08T13:04:12;7.93;;;4.00;;
42104;SDS011;70664;51.472;5.712;2023-07-08T13:06:39;5.93;;;4.20;;
42104;SDS011;70664;51.472;5.712;2023-07-08T13:09:13;7.25;;;3.80;;
42104;SDS011;70664;51.472;5.712;2023-07-08T13:12:10;8.25;;;3.85;;
42104;SDS011;70664;51.472;5.712;2023-07-08T13:14:49;5.50;;;3.85;;
42104;SDS011;70664;51.472;5.712;2023-07-08T13:17:18;7.70;;;4.13;;
42104;SDS011;70664;51.472;5.712;2023-07-08T13:19:45;5.95;;;3.88;;
42104;SDS011;70664;51.472;5.712;2023-07-08T13:22:15;6.43;;;4.00;;
42104;SDS011;70664;51.472;5.712;2023-07-08T13:24:44;5.22;;;3.78;;
42104;SDS011;70664;51.472;5.712;2023-07-08T13:27:20;5.90;;;3.78;;
42104;SDS011;70664;51.472;5.712;2023-07-08T13:29:50;7.03;;;3.90;;
42104;SDS011;70664;51.472;5.712;2023-07-08T13:32:18;6.20;;;3.85;;
42104;SDS011;70664;51.472;5.712;2023-07-08T13:34:44;7.25;;;3.70;;
42104;SDS011;70664;51.472;5.712;2023-07-08T13:37:11;5.40;;;3.63;;
42104;SDS011;70664;51.472;5.712;2023-07-08T13:39:38;7.80;;;4.22;;
42104;SDS011;70664;51.472;5.712;2023-07-08T13:42:09;5.05;;;3.60;;
42104;SDS011;70664;51.472;5.712;2023-07-08T13:47:23;5.22;;;3.53;;
42104;SDS011;70664;51.472;5.712;2023-07-08T13:50:01;4.45;;;3.58;;
42104;SDS011;70664;51.472;5.712;2023-07-08T13:52:44;7.43;;;4.25;;
42104;SDS011;70664;51.472;5.712;2023-07-08T13:55:15;5.93;;;3.50;;
42104;SDS011;70664;51.472;5.712;2023-07-08T13:57:45;5.10;;;3.72;;
42104;SDS011;70664;51.472;5.712;2023-07-08T14:00:20;10.88;;;4.00;;
42104;SDS011;70664;51.472;5.712;2023-07-08T14:02:46;4.55;;;3.47;;
42104;SDS011;70664;51.472;5.712;2023-07-08T14:05:12;4.78;;;3.63;;
42104;SDS011;70664;51.472;5.712;2023-07-08T14:07:40;6.32;;;3.40;;
42104;SDS011;70664;51.472;5.712;2023-07-08T14:10:11;6.15;;;4.10;;
42104;SDS011;70664;51.472;5.712;2023-07-08T14:12:38;5.25;;;3.63;;
42104;SDS011;70664;51.472;5.712;2023-07-08T14:15:04;6.03;;;3.47;;
42104;SDS011;70664;51.472;5.712;2023-07-08T14:17:31;6.20;;;3.40;;
42104;SDS011;70664;51.472;5.712;2023-07-08T14:19:57;6.50;;;3.88;;
42104;SDS011;70664;51.472;5.712;2023-07-08T14:22:25;4.45;;;3.60;;
42104;SDS011;70664;51.472;5.712;2023-07-08T14:24:55;4.97;;;3.53;;
42104;SDS011;70664;51.472;5.712;2023-07-08T14:27:26;5.68;;;3.65;;
42104;SDS011;70664;51.472;5.712;2023-07-08T14:29:52;4.53;;;3.50;;
42104;SDS011;70664;51.472;5.712;2023-07-08T14:34:59;6.85;;;3.30;;
42104;SDS011;70664;51.472;5.712;2023-07-08T14:37:51;6.20;;;3.55;;
42104;SDS011;70664;51.472;5.712;2023-07-08T14:40:26;5.80;;;3.78;;
42104;SDS011;70664;51.472;5.712;2023-07-08T14:43:03;5.13;;;3.67;;
42104;SDS011;70664;51.472;5.712;2023-07-08T14:45:38;4.57;;;3.20;;
42104;SDS011;70664;51.472;5.712;2023-07-08T14:48:10;4.53;;;3.40;;
42104;SDS011;70664;51.472;5.712;2023-07-08T14:50:37;6.90;;;4.00;;
42104;SDS011;70664;51.472;5.712;2023-07-08T14:53:04;4.93;;;3.00;;
42104;SDS011;70664;51.472;5.712;2023-07-08T14:55:30;5.30;;;3.75;;
42104;SDS011;70664;51.472;5.712;2023-07-08T14:57:56;7.72;;;3.78;;
42104;SDS011;70664;51.472;5.712;2023-07-08T15:00:23;4.80;;;3.30;;
42104;SDS011;70664;51.472;5.712;2023-07-08T15:02:49;4.43;;;3.15;;
42104;SDS011;70664;51.472;5.712;2023-07-08T15:05:18;4.95;;;3.80;;
42104;SDS011;70664;51.472;5.712;2023-07-08T15:07:55;6.20;;;3.80;;
42104;SDS011;70664;51.472;5.712;2023-07-08T15:10:24;5.72;;;3.60;;
42104;SDS011;70664;51.472;5.712;2023-07-08T15:12:54;5.28;;;3.50;;
42104;SDS011;70664;51.472;5.712;2023-07-08T15:15:23;7.40;;;3.60;;
42104;SDS011;70664;51.472;5.712;2023-07-08T15:17:55;5.45;;;3.38;;
42104;SDS011;70664;51.472;5.712;2023-07-08T15:20:27;5.00;;;3.40;;
42104;SDS011;70664;51.472;5.712;2023-07-08T15:22:53;4.85;;;3.40;;
42104;SDS011;70664;51.472;5.712;2023-07-08T15:25:19;4.82;;;3.13;;
42104;SDS011;70664;51.472;5.712;2023-07-08T15:27:46;5.20;;;3.50;;
42104;SDS011;70664;51.472;5.712;2023-07-08T15:30:18;6.03;;;3.20;;
42104;SDS011;70664;51.472;5.712;2023-07-08T15:32:47;6.18;;;3.35;;
42104;SDS011;70664;51.472;5.712;2023-07-08T15:35:14;5.68;;;3.72;;
42104;SDS011;70664;51.472;5.712;2023-07-08T15:37:46;4.68;;;3.17;;
42104;SDS011;70664;51.472;5.712;2023-07-08T15:40:14;4.47;;;3.17;;
42104;SDS011;70664;51.472;5.712;2023-07-08T15:42:42;6.57;;;3.55;;
42104;SDS011;70664;51.472;5.712;2023-07-08T15:45:19;5.32;;;3.25;;
42104;SDS011;70664;51.472;5.712;2023-07-08T15:47:51;4.50;;;3.50;;
42104;SDS011;70664;51.472;5.712;2023-07-08T15:50:18;5.43;;;3.55;;
42104;SDS011;70664;51.472;5.712;2023-07-08T15:52:47;5.18;;;3.55;;
42104;SDS011;70664;51.472;5.712;2023-07-08T15:55:14;4.82;;;3.47;;
42104;SDS011;70664;51.472;5.712;2023-07-08T16:00:33;7.15;;;3.50;;
42104;SDS011;70664;51.472;5.712;2023-07-08T16:03:09;5.25;;;3.60;;
42104;SDS011;70664;51.472;5.712;2023-07-08T16:05:46;5.43;;;3.50;;
42104;SDS011;70664;51.472;5.712;2023-07-08T16:08:12;5.18;;;3.60;;
42104;SDS011;70664;51.472;5.712;2023-07-08T16:10:37;4.88;;;3.28;;
42104;SDS011;70664;51.472;5.712;2023-07-08T16:13:03;4.28;;;3.50;;
42104;SDS011;70664;51.472;5.712;2023-07-08T16:15:31;5.25;;;3.40;;
42104;SDS011;70664;51.472;5.712;2023-07-08T16:18:01;4.95;;;3.63;;
42104;SDS011;70664;51.472;5.712;2023-07-08T16:20:28;5.75;;;3.58;;
42104;SDS011;70664;51.472;5.712;2023-07-08T16:22:57;4.63;;;3.70;;
42104;SDS011;70664;51.472;5.712;2023-07-08T16:25:27;6.05;;;3.40;;